createdAt,value
2018-05-04T00:02:36.717Z,97.70
2018-05-04T00:07:10.053Z,97.70
2018-05-04T00:11:45.986Z,98.10
2018-05-04T00:16:19.950Z,98.40
2018-05-04T00:20:53.382Z,98.60
2018-05-04T00:25:28.111Z,99.00
2018-05-04T00:30:01.314Z,99.30
2018-05-04T00:34:34.754Z,99.10
2018-05-04T00:39:08.711Z,99.20
2018-05-04T00:43:41.895Z,99.20
2018-05-04T02:12:19.446Z,99.90
2018-05-04T02:16:55.785Z,99.90
2018-05-04T02:21:29.947Z,99.90
2018-05-04T02:26:03.815Z,99.90
2018-05-04T02:30:37.122Z,99.90
2018-05-04T02:35:11.074Z,99.90
2018-05-04T02:39:44.286Z,99.90
2018-05-04T02:44:17.618Z,99.90
2018-05-04T02:48:50.782Z,99.90
2018-05-04T02:53:24.029Z,99.90
2018-05-04T02:57:57.221Z,99.90
2018-05-04T03:02:30.458Z,99.90
2018-05-04T03:07:03.613Z,99.90
2018-05-04T03:11:36.794Z,99.90
2018-05-04T03:16:10.748Z,99.90
2018-05-04T03:20:43.945Z,99.90
2018-05-04T03:25:17.270Z,99.90
2018-05-04T03:29:50.516Z,99.90
2018-05-04T03:34:23.835Z,99.90
2018-05-04T03:49:10.650Z,99.90
2018-05-04T03:53:43.842Z,99.90
2018-05-04T03:58:29.722Z,99.90
2018-05-04T04:08:09.921Z,99.90
2018-05-04T04:12:43.205Z,99.90
2018-05-04T04:17:17.093Z,99.90
2018-05-04T04:21:50.289Z,99.90
2018-05-04T04:26:24.187Z,99.90
2018-05-04T04:30:58.340Z,99.90
2018-05-04T04:35:32.276Z,99.90
2018-05-04T04:40:05.546Z,99.90
2018-05-04T04:44:39.662Z,99.90
2018-05-04T04:49:12.888Z,99.90
2018-05-04T04:53:46.046Z,99.90
2018-05-04T04:58:19.226Z,99.90
2018-05-04T05:02:52.411Z,99.90
2018-05-04T05:07:26.354Z,99.90
2018-05-04T05:12:00.561Z,99.90
2018-05-04T05:16:33.746Z,99.90
2018-05-04T05:21:06.930Z,99.90
2018-05-04T05:25:40.114Z,99.90
2018-05-04T05:30:13.306Z,99.90
2018-05-04T05:34:46.533Z,99.90
2018-05-04T05:39:19.908Z,99.90
2018-05-04T05:43:53.849Z,99.90
2018-05-04T05:48:27.799Z,99.90
2018-05-04T05:53:00.955Z,99.90
2018-05-04T05:57:34.303Z,99.90
2018-05-04T06:02:07.458Z,99.90
2018-05-04T06:06:42.147Z,99.60
2018-05-04T06:11:15.330Z,99.60
2018-05-04T06:15:49.287Z,97.30
2018-05-04T06:20:22.442Z,97.30
2018-05-04T06:24:55.631Z,96.30
2018-05-04T06:29:28.812Z,95.20
2018-05-04T06:34:01.996Z,93.70
2018-05-04T06:38:35.944Z,91.90
2018-05-04T06:43:09.126Z,91.80
2018-05-04T06:47:42.389Z,91.20
2018-05-04T06:52:15.575Z,90.90
2018-05-04T06:56:48.762Z,89.20
2018-05-04T07:01:21.945Z,87.70
2018-05-04T07:05:55.134Z,86.00
2018-05-04T07:10:28.420Z,84.00
2018-05-04T07:15:01.601Z,81.60
2018-05-04T07:19:34.789Z,81.20
2018-05-04T07:24:07.962Z,79.10
2018-05-04T07:28:42.297Z,76.80
2018-05-04T07:33:15.491Z,76.00
2018-05-04T07:37:48.627Z,76.80
2018-05-04T07:42:21.954Z,74.60
2018-05-04T07:46:55.130Z,69.30
2018-05-04T07:51:29.054Z,67.80
2018-05-04T07:56:03.006Z,66.80
2018-05-04T08:00:36.215Z,66.80
2018-05-04T08:05:09.414Z,66.30
2018-05-04T08:09:42.737Z,62.80
2018-05-04T08:14:15.929Z,58.90
2018-05-04T08:18:49.204Z,54.60
2018-05-04T08:23:22.381Z,49.40
2018-05-04T08:27:55.620Z,45.40
2018-05-04T08:32:28.804Z,42.20
2018-05-04T08:37:02.008Z,43.40
2018-05-04T08:41:35.207Z,43.20
2018-05-04T08:46:08.386Z,41.50
2018-05-04T08:50:41.574Z,40.50
2018-05-04T08:55:14.782Z,40.20
2018-05-04T08:59:47.967Z,40.20
2018-05-04T09:04:22.155Z,39.70
2018-05-04T09:08:55.563Z,39.50
2018-05-04T09:13:28.763Z,40.10
2018-05-04T09:18:02.017Z,36.30
2018-05-04T09:22:35.189Z,38.50
2018-05-04T09:27:08.374Z,40.90
2018-05-04T09:31:41.573Z,38.90
2018-05-04T09:36:14.762Z,39.20
2018-05-04T09:40:48.781Z,36.50
2018-05-04T09:45:22.837Z,37.50
2018-05-04T09:49:56.026Z,37.50
2018-05-04T09:54:29.214Z,38.60
2018-05-04T09:59:03.142Z,38.00
2018-05-04T10:03:37.147Z,38.10
2018-05-04T10:08:10.311Z,38.00
2018-05-04T10:12:43.504Z,39.40
2018-05-04T10:17:16.682Z,38.90
2018-05-04T10:21:51.655Z,41.00
2018-05-04T10:26:25.014Z,41.00
2018-05-04T10:30:59.275Z,40.20
2018-05-04T10:35:33.232Z,38.30
2018-05-04T10:40:06.422Z,38.30
2018-05-04T10:44:39.623Z,38.80
2018-05-04T10:49:12.792Z,38.70
2018-05-04T10:53:45.982Z,39.70
2018-05-04T10:58:19.324Z,39.40
2018-05-04T11:02:52.507Z,39.30
2018-05-04T11:07:25.701Z,40.90
2018-05-04T11:11:58.907Z,41.30
2018-05-04T11:16:32.074Z,39.40
2018-05-04T11:21:05.281Z,39.30
2018-05-04T11:25:38.465Z,37.50
2018-05-04T11:30:12.414Z,38.00
2018-05-04T11:34:45.598Z,38.00
2018-05-04T11:39:19.558Z,38.60
2018-05-04T11:43:52.724Z,38.50
2018-05-04T11:48:26.989Z,39.40
2018-05-04T11:53:00.222Z,38.70
2018-05-04T11:57:33.457Z,38.10
2018-05-04T12:02:06.647Z,39.80
2018-05-04T12:06:39.821Z,37.70
2018-05-04T12:11:13.005Z,38.40
2018-05-04T12:15:47.015Z,38.60
2018-05-04T12:20:20.990Z,38.80
2018-05-04T12:24:54.151Z,38.80
2018-05-04T12:29:28.110Z,40.50
2018-05-04T12:34:01.295Z,40.40
2018-05-04T12:38:34.518Z,41.40
2018-05-04T12:43:07.684Z,42.20
2018-05-04T12:47:40.870Z,42.50
2018-05-04T12:52:14.059Z,41.40
2018-05-04T12:56:47.246Z,41.10
2018-05-04T13:01:20.504Z,41.80
2018-05-04T13:05:53.670Z,40.60
2018-05-04T13:10:26.866Z,40.90
2018-05-04T13:15:00.058Z,40.50
2018-05-04T13:19:33.274Z,41.40
2018-05-04T13:24:06.462Z,40.90
2018-05-04T13:28:40.646Z,41.90
2018-05-04T13:33:13.884Z,41.80
2018-05-04T13:37:47.830Z,45.60
2018-05-04T13:42:21.013Z,45.40
2018-05-04T13:46:54.970Z,45.90
2018-05-04T13:51:28.214Z,45.80
2018-05-04T13:56:02.170Z,48.70
2018-05-04T14:00:36.101Z,49.50
2018-05-04T14:05:10.051Z,49.00
2018-05-04T14:09:43.240Z,48.80
2018-05-04T14:14:17.366Z,49.70
2018-05-04T14:18:51.321Z,49.20
2018-05-04T14:23:24.806Z,49.10
2018-05-04T14:27:58.761Z,50.90
2018-05-04T14:32:31.952Z,50.90
2018-05-04T14:37:05.139Z,52.10
2018-05-04T14:41:39.106Z,50.50
2018-05-04T14:46:12.271Z,50.50
2018-05-04T14:50:46.221Z,51.80
2018-05-04T14:55:19.714Z,51.80
2018-05-04T14:59:52.900Z,52.10
2018-05-04T15:04:26.854Z,52.00
2018-05-04T15:09:00.063Z,51.50
2018-05-04T15:13:33.257Z,52.20
2018-05-04T15:18:07.296Z,52.70
2018-05-04T15:22:40.491Z,52.70
2018-05-04T15:27:13.653Z,53.40
2018-05-04T15:31:48.346Z,54.30
2018-05-04T15:36:21.530Z,54.30
2018-05-04T15:40:55.497Z,54.20
2018-05-04T15:45:28.664Z,54.20
2018-05-04T15:50:07.563Z,54.80
2018-05-04T15:54:40.740Z,55.10
2018-05-04T15:59:13.942Z,55.10
2018-05-04T16:03:47.442Z,55.40
2018-05-04T16:08:20.612Z,54.20
2018-05-04T16:12:53.808Z,54.70
2018-05-04T16:17:27.017Z,54.10
2018-05-04T16:22:00.289Z,53.70
2018-05-04T16:26:33.422Z,53.90
2018-05-04T16:31:06.603Z,54.40
2018-05-04T16:35:39.868Z,54.10
2018-05-04T16:40:13.036Z,54.70
2018-05-04T16:44:46.217Z,54.40
2018-05-04T16:49:25.464Z,54.30
2018-05-04T16:53:58.737Z,54.70
2018-05-04T16:58:32.667Z,55.60
2018-05-04T17:03:05.905Z,55.50
2018-05-04T17:07:39.210Z,55.30
2018-05-04T17:12:12.419Z,55.00
2018-05-04T17:16:45.577Z,56.00
2018-05-04T17:21:18.786Z,56.20
2018-05-04T17:25:51.954Z,55.90
2018-05-04T17:30:25.182Z,54.40
2018-05-04T17:34:58.401Z,54.90
2018-05-04T17:39:32.352Z,55.10
2018-05-04T17:44:06.276Z,54.70
2018-05-04T17:48:40.237Z,55.50
2018-05-04T17:53:14.023Z,55.40
2018-05-04T17:57:48.275Z,55.80
2018-05-04T18:02:21.464Z,55.70
2018-05-04T18:06:55.490Z,55.20
2018-05-04T18:11:28.647Z,55.10
2018-05-04T18:16:02.091Z,54.90
2018-05-04T18:20:36.033Z,55.70
2018-05-04T18:25:09.247Z,55.50
2018-05-04T18:29:42.433Z,56.80
2018-05-04T18:34:16.387Z,58.40
2018-05-04T18:38:49.686Z,58.40
2018-05-04T18:43:22.926Z,59.70
2018-05-04T18:47:56.115Z,60.60
2018-05-04T18:52:29.503Z,62.00
2018-05-04T18:57:03.980Z,62.20
2018-05-04T19:01:38.170Z,62.00
2018-05-04T19:06:11.525Z,62.00
2018-05-04T19:10:44.735Z,61.40
2018-05-04T19:15:18.144Z,60.80
2018-05-04T19:19:51.514Z,60.40
2018-05-04T19:24:24.672Z,60.70
2018-05-04T19:28:57.854Z,60.70
2018-05-04T19:33:31.056Z,61.60
2018-05-04T19:38:04.366Z,61.70
2018-05-04T19:42:37.549Z,61.50
2018-05-04T19:47:10.737Z,61.90
2018-05-04T19:51:44.710Z,64.60
2018-05-04T19:56:18.179Z,64.50
2018-05-04T20:00:52.102Z,66.20
2018-05-04T20:05:25.451Z,66.10
2018-05-04T20:09:58.988Z,67.40
2018-05-04T20:14:32.190Z,71.10
2018-05-04T20:19:05.555Z,70.10
2018-05-04T20:23:38.862Z,72.30
2018-05-04T20:28:12.786Z,76.40
2018-05-04T20:32:46.485Z,76.30
2018-05-04T20:37:19.746Z,76.00
2018-05-04T20:41:52.898Z,73.30
2018-05-04T20:46:28.018Z,72.00
2018-05-04T20:51:01.174Z,72.00
2018-05-04T20:55:34.471Z,73.60
2018-05-04T21:00:08.438Z,80.00
2018-05-04T21:04:41.602Z,79.90
2018-05-04T21:09:15.557Z,82.40
2018-05-04T21:13:48.738Z,82.40
2018-05-04T21:18:22.698Z,88.90
2018-05-04T21:22:55.886Z,88.80
2018-05-04T21:27:29.078Z,89.40
2018-05-04T21:32:02.272Z,90.50
2018-05-04T21:36:36.229Z,92.00
2018-05-04T21:41:09.421Z,92.00
2018-05-04T21:45:42.612Z,92.70
2018-05-04T21:50:16.545Z,93.70
2018-05-04T21:54:49.757Z,93.70
2018-05-04T21:59:22.998Z,94.00
2018-05-04T22:03:56.191Z,94.10
2018-05-04T22:08:29.406Z,94.40
2018-05-04T22:13:02.570Z,94.60
2018-05-04T22:17:36.586Z,95.10
2018-05-04T22:22:10.544Z,95.30
2018-05-04T22:26:43.739Z,95.30
2018-05-04T22:31:16.929Z,95.70
2018-05-04T22:35:50.881Z,96.00
2018-05-04T22:40:24.073Z,95.90
2018-05-04T22:44:57.360Z,96.00
2018-05-04T22:49:30.546Z,96.00
2018-05-04T22:54:03.699Z,95.50
2018-05-04T22:58:36.882Z,94.60
2018-05-04T23:03:11.023Z,92.70
2018-05-04T23:07:44.331Z,92.70
2018-05-04T23:12:18.321Z,92.00
2018-05-04T23:16:51.485Z,91.90
2018-05-04T23:21:24.669Z,91.70
2018-05-04T23:25:58.623Z,91.80
2018-05-04T23:30:31.803Z,91.80
2018-05-04T23:35:06.631Z,91.20
2018-05-04T23:39:40.338Z,91.20
2018-05-04T23:44:13.518Z,91.40
2018-05-04T23:48:46.699Z,91.00
2018-05-04T23:53:19.972Z,91.10
2018-05-04T23:57:53.925Z,91.00
